createdAt,value
2023-09-12T00:00:49.094Z,100386.09
2023-09-12T00:03:16.039Z,100381.19
2023-09-12T00:05:42.726Z,100379.66
2023-09-12T00:08:09.564Z,100390.81
2023-09-12T00:10:36.221Z,100402.94
2023-09-12T00:13:03.520Z,100401.03
2023-09-12T00:15:30.456Z,100392.13
2023-09-12T00:17:57.645Z,100378.50
2023-09-12T00:20:25.033Z,100379.09
2023-09-12T00:22:51.930Z,100380.16
2023-09-12T00:25:18.936Z,100385.38
2023-09-12T00:27:45.552Z,100378.00
2023-09-12T00:30:12.945Z,100365.13
2023-09-12T00:32:40.434Z,100361.22
2023-09-12T00:35:07.299Z,100310.19
2023-09-12T00:37:34.348Z,100269.91
2023-09-12T00:40:00.936Z,100261.75
2023-09-12T00:42:27.950Z,100251.19
2023-09-12T00:44:54.649Z,100233.50
2023-09-12T00:47:23.066Z,100226.09
2023-09-12T00:49:56.476Z,100229.78
2023-09-12T00:52:26.712Z,100228.56
2023-09-12T00:54:54.563Z,100237.34
2023-09-12T00:57:24.753Z,100239.44
2023-09-12T00:59:53.260Z,100230.25
2023-09-12T01:02:23.498Z,100230.97
2023-09-12T01:04:50.345Z,100236.84
2023-09-12T01:07:17.411Z,100244.94
2023-09-12T01:09:44.134Z,100255.19
2023-09-12T01:12:15.609Z,100241.28
2023-09-12T01:14:43.199Z,100238.63
2023-09-12T01:17:09.858Z,100234.25
2023-09-12T01:19:36.911Z,100244.44
2023-09-12T01:22:15.681Z,100261.16
2023-09-12T01:25:00.934Z,100272.59
2023-09-12T01:27:52.208Z,100279.41
2023-09-12T01:30:22.814Z,100285.59
2023-09-12T01:32:49.989Z,100295.88
2023-09-12T01:35:16.560Z,100302.41
2023-09-12T01:37:43.136Z,100305.75
2023-09-12T01:40:11.981Z,100304.91
2023-09-12T01:42:43.322Z,100317.47
2023-09-12T01:45:13.014Z,100323.41
2023-09-12T01:47:40.934Z,100340.53
2023-09-12T01:50:10.152Z,100350.53
2023-09-12T01:52:37.627Z,100343.16
2023-09-12T01:55:05.842Z,100355.34
2023-09-12T01:57:33.793Z,100348.25
2023-09-12T02:00:00.646Z,100348.53
2023-09-12T02:02:27.378Z,100334.25
2023-09-12T02:05:20.015Z,100348.66
2023-09-12T02:07:47.493Z,100352.19
2023-09-12T02:10:14.810Z,100360.75
2023-09-12T02:12:42.332Z,100363.59
2023-09-12T02:15:09.929Z,100369.09
2023-09-12T02:17:36.553Z,100380.16
2023-09-12T02:20:06.720Z,100381.41
2023-09-12T02:22:33.318Z,100377.03
2023-09-12T02:24:59.926Z,100375.81
2023-09-12T02:27:26.563Z,100377.03
2023-09-12T02:29:53.948Z,100381.53
2023-09-12T02:32:20.746Z,100378.19
2023-09-12T02:34:47.424Z,100379.69
2023-09-12T02:37:14.046Z,100386.34
2023-09-12T02:39:41.123Z,100378.34
2023-09-12T02:42:07.742Z,100367.22
2023-09-12T02:44:34.865Z,100359.88
2023-09-12T02:47:01.913Z,100352.28
2023-09-12T02:49:29.350Z,100343.22
2023-09-12T02:51:55.964Z,100348.13
2023-09-12T02:54:22.801Z,100332.19
2023-09-12T02:56:49.392Z,100318.66
2023-09-12T02:59:16.182Z,100313.06
2023-09-12T03:01:43.689Z,100333.88
2023-09-12T03:04:10.421Z,100374.91
2023-09-12T03:06:37.581Z,100388.25
2023-09-12T03:09:05.439Z,100366.59
2023-09-12T03:11:32.245Z,100333.56
2023-09-12T03:13:59.921Z,100325.53
2023-09-12T03:16:26.703Z,100327.63
2023-09-12T03:18:53.410Z,100343.88
2023-09-12T03:21:20.799Z,100338.09
2023-09-12T03:23:47.485Z,100331.53
2023-09-12T03:26:15.426Z,100322.91
2023-09-12T03:28:42.737Z,100335.00
2023-09-12T03:31:15.681Z,100366.22
2023-09-12T03:33:44.461Z,100405.81
2023-09-12T03:36:11.241Z,100422.88
2023-09-12T03:38:37.894Z,100389.13
2023-09-12T03:41:04.711Z,100394.66
2023-09-12T03:43:31.685Z,100391.31
2023-09-12T03:45:58.472Z,100377.34
2023-09-12T03:48:25.689Z,100365.28
2023-09-12T03:50:52.623Z,100393.00
2023-09-12T03:53:19.827Z,100408.22
2023-09-12T03:56:09.360Z,100373.72
2023-09-12T03:58:36.321Z,100382.94
2023-09-12T04:01:03.348Z,100388.69
2023-09-12T04:03:30.359Z,100394.97
2023-09-12T04:05:57.180Z,100381.44
2023-09-12T04:08:24.397Z,100365.56
2023-09-12T04:10:51.467Z,100367.47
2023-09-12T04:13:18.529Z,100356.84
2023-09-12T04:15:45.919Z,100337.34
2023-09-12T04:18:12.909Z,100369.66
2023-09-12T04:20:39.587Z,100355.84
2023-09-12T04:23:06.737Z,100328.19
2023-09-12T04:25:34.901Z,100292.38
2023-09-12T04:28:01.554Z,100249.34
2023-09-12T04:30:28.726Z,100214.03
2023-09-12T04:32:56.455Z,100217.47
2023-09-12T04:35:23.912Z,100195.19
2023-09-12T04:37:50.852Z,100207.03
2023-09-12T04:40:17.900Z,100213.69
2023-09-12T04:42:44.823Z,100207.38
2023-09-12T04:45:12.032Z,100215.50
2023-09-12T04:47:38.757Z,100230.78
2023-09-12T04:50:06.527Z,100233.94
2023-09-12T04:52:34.259Z,100240.78
2023-09-12T04:55:02.513Z,100235.81
2023-09-12T04:57:32.270Z,100225.03
2023-09-12T04:59:59.583Z,100224.94
2023-09-12T05:02:26.728Z,100219.03
2023-09-12T05:04:53.655Z,100225.75
2023-09-12T05:07:20.547Z,100240.75
2023-09-12T05:09:47.244Z,100257.94
2023-09-12T05:12:15.026Z,100254.31
2023-09-12T05:14:41.890Z,100246.00
2023-09-12T05:17:09.270Z,100261.50
2023-09-12T05:19:35.860Z,100292.81
2023-09-12T05:22:02.774Z,100322.72
2023-09-12T05:24:29.452Z,100332.09
2023-09-12T05:26:57.958Z,100358.91
2023-09-12T05:29:24.634Z,100354.91
2023-09-12T05:31:51.916Z,100355.81
2023-09-12T05:34:19.234Z,100363.09
2023-09-12T05:36:46.134Z,100364.16
2023-09-12T05:39:14.816Z,100358.69
2023-09-12T05:41:42.146Z,100370.38
2023-09-12T05:44:09.473Z,100372.00
2023-09-12T05:46:36.260Z,100368.25
2023-09-12T05:49:02.928Z,100379.72
2023-09-12T05:51:31.873Z,100383.22
2023-09-12T05:53:59.053Z,100375.69
2023-09-12T05:56:25.951Z,100373.91
2023-09-12T05:58:52.954Z,100369.75
2023-09-12T06:01:20.493Z,100373.41
2023-09-12T06:03:47.539Z,100386.66
2023-09-12T06:06:15.331Z,100402.66
2023-09-12T06:08:42.616Z,100414.84
2023-09-12T06:11:12.133Z,100415.06
2023-09-12T06:13:38.749Z,100423.50
2023-09-12T06:16:07.312Z,100424.28
2023-09-12T06:18:35.519Z,100419.16
2023-09-12T06:21:05.296Z,100402.09
2023-09-12T06:23:33.186Z,100385.00
2023-09-12T06:25:59.745Z,100385.34
2023-09-12T06:28:28.149Z,100387.69
2023-09-12T06:30:55.270Z,100361.34
2023-09-12T06:33:22.463Z,100354.22
2023-09-12T06:35:51.226Z,100363.13
2023-09-12T06:38:17.904Z,100358.75
2023-09-12T06:40:45.050Z,100338.50
2023-09-12T06:43:11.744Z,100339.97
2023-09-12T06:45:39.286Z,100344.94
2023-09-12T06:48:06.564Z,100344.03
2023-09-12T06:50:35.242Z,100342.81
2023-09-12T06:53:02.096Z,100327.97
2023-09-12T06:55:29.490Z,100333.78
2023-09-12T06:57:56.147Z,100350.19
2023-09-12T07:00:23.450Z,100351.69
2023-09-12T07:02:51.048Z,100379.09
2023-09-12T07:05:18.179Z,100388.00
2023-09-12T07:07:45.262Z,100375.78
2023-09-12T07:10:23.462Z,100368.13
2023-09-12T07:12:53.769Z,100373.13
2023-09-12T07:15:21.225Z,100371.06
2023-09-12T07:17:48.345Z,100379.03
2023-09-12T07:20:16.988Z,100378.44
2023-09-12T07:22:44.600Z,100374.88
2023-09-12T07:25:12.807Z,100384.25
2023-09-12T07:27:40.100Z,100388.56
2023-09-12T07:30:08.621Z,100392.53
2023-09-12T07:32:35.365Z,100386.50
2023-09-12T07:35:02.221Z,100381.50
2023-09-12T07:37:29.557Z,100378.69
2023-09-12T07:39:56.879Z,100354.84
2023-09-12T07:42:25.389Z,100353.94
2023-09-12T07:47:36.860Z,100376.88
2023-09-12T07:50:22.037Z,100383.53
2023-09-12T07:52:49.635Z,100380.69
2023-09-12T07:55:46.729Z,100376.47
2023-09-12T07:58:15.169Z,100368.38
2023-09-12T08:00:42.635Z,100373.84
2023-09-12T08:03:09.913Z,100371.38
2023-09-12T08:05:37.636Z,100373.84
2023-09-12T08:08:04.935Z,100373.72
2023-09-12T08:10:31.912Z,100371.72
2023-09-12T08:12:58.728Z,100376.94
2023-09-12T08:15:25.746Z,100384.13
2023-09-12T08:17:54.215Z,100378.72
2023-09-12T08:20:21.734Z,100378.56
2023-09-12T08:22:50.064Z,100382.13
2023-09-12T08:28:02.167Z,100401.91
2023-09-12T08:30:31.582Z,100404.13
2023-09-12T08:32:59.387Z,100421.84
2023-09-12T08:35:28.287Z,100439.69
2023-09-12T08:37:55.278Z,100463.16
2023-09-12T08:40:21.896Z,100483.91
2023-09-12T08:42:52.143Z,100496.22
2023-09-12T08:45:20.884Z,100494.75
2023-09-12T08:47:51.496Z,100495.63
2023-09-12T08:50:21.939Z,100501.78
2023-09-12T08:53:05.343Z,100502.63
2023-09-12T08:55:38.976Z,100509.97
2023-09-12T08:58:07.399Z,100506.28
2023-09-12T09:00:35.735Z,100499.72
2023-09-12T09:03:03.957Z,100495.16
2023-09-12T09:05:32.093Z,100493.13
2023-09-12T09:08:01.179Z,100497.34
2023-09-12T09:10:47.057Z,100491.53
2023-09-12T09:13:16.835Z,100497.16
2023-09-12T09:15:43.859Z,100494.88
2023-09-12T09:18:13.293Z,100507.72
2023-09-12T09:20:41.932Z,100502.44
2023-09-12T09:23:12.114Z,100505.47
2023-09-12T09:25:42.778Z,100509.28
2023-09-12T09:28:22.861Z,100502.91
2023-09-12T09:30:54.320Z,100493.28
2023-09-12T09:33:21.859Z,100497.97
2023-09-12T09:35:50.015Z,100512.47
2023-09-12T09:38:20.407Z,100512.19
2023-09-12T09:40:47.507Z,100505.69
2023-09-12T09:43:19.830Z,100504.50
2023-09-12T09:45:47.645Z,100497.25
2023-09-12T09:48:22.927Z,100491.97
2023-09-12T09:50:50.507Z,100497.19
2023-09-12T09:53:17.347Z,100486.56
2023-09-12T09:55:44.718Z,100493.28
2023-09-12T09:58:19.883Z,100501.97
2023-09-12T10:00:49.920Z,100510.47
2023-09-12T10:03:20.039Z,100516.53
2023-09-12T10:05:49.743Z,100514.59
2023-09-12T10:08:18.373Z,100529.19
2023-09-12T10:10:46.235Z,100533.78
2023-09-12T10:13:15.028Z,100526.72
2023-09-12T10:15:44.256Z,100526.28
2023-09-12T10:18:29.507Z,100520.63
2023-09-12T10:21:05.541Z,100504.53
2023-09-12T10:23:43.275Z,100496.47
2023-09-12T10:26:13.405Z,100507.56
2023-09-12T10:28:44.450Z,100528.53
2023-09-12T10:31:14.236Z,100543.94
2023-09-12T10:33:41.624Z,100519.41
2023-09-12T10:36:10.238Z,100496.63
2023-09-12T10:38:45.779Z,100505.03
2023-09-12T10:41:15.868Z,100511.47
2023-09-12T10:43:47.750Z,100498.56
2023-09-12T10:46:14.815Z,100502.06
2023-09-12T10:48:41.764Z,100496.19
2023-09-12T10:51:11.116Z,100493.78
2023-09-12T10:53:38.004Z,100488.41
2023-09-12T10:56:10.508Z,100492.94
2023-09-12T10:59:05.328Z,100477.59
2023-09-12T11:01:33.477Z,100453.44
2023-09-12T11:04:20.125Z,100427.50
2023-09-12T11:06:48.768Z,100427.06
2023-09-12T11:09:15.604Z,100435.66
2023-09-12T11:11:49.968Z,100434.09
2023-09-12T11:14:20.438Z,100413.41
2023-09-12T11:17:08.738Z,100408.56
2023-09-12T11:19:49.596Z,100395.50
2023-09-12T11:22:30.456Z,100392.56
2023-09-12T11:24:57.711Z,100409.31
2023-09-12T11:27:31.993Z,100416.19
2023-09-12T11:30:06.430Z,100443.41
2023-09-12T11:32:37.647Z,100454.25
2023-09-12T11:35:08.828Z,100460.13
2023-09-12T11:37:38.488Z,100461.88
2023-09-12T11:40:18.266Z,100461.97
2023-09-12T11:42:48.851Z,100463.13
2023-09-12T11:45:16.125Z,100470.38
2023-09-12T11:47:43.714Z,100443.94
2023-09-12T11:50:40.276Z,100464.38
2023-09-12T11:53:10.752Z,100468.97
2023-09-12T11:55:53.086Z,100465.97
2023-09-12T11:58:20.900Z,100467.31
2023-09-12T12:00:52.441Z,100469.56
2023-09-12T12:03:21.979Z,100463.34
2023-09-12T12:05:49.846Z,100460.13
2023-09-12T12:10:55.207Z,100460.06
2023-09-12T12:13:23.993Z,100455.78
2023-09-12T12:15:51.747Z,100456.59
2023-09-12T12:18:18.560Z,100456.94
2023-09-12T12:20:45.376Z,100447.16
2023-09-12T12:23:12.324Z,100448.63
2023-09-12T12:25:38.982Z,100447.19
2023-09-12T12:28:05.980Z,100450.63
2023-09-12T12:30:35.264Z,100441.13
2023-09-12T12:34:03.243Z,100438.66
2023-09-12T12:36:04.174Z,100429.34
2023-09-12T12:38:41.890Z,100417.31
2023-09-12T12:41:11.823Z,100420.66
2023-09-12T12:43:42.605Z,100415.09
2023-09-12T12:46:13.708Z,100421.03
2023-09-12T12:48:46.757Z,100411.59
2023-09-12T12:51:19.342Z,100422.56
2023-09-12T12:53:54.223Z,100416.69
2023-09-12T12:56:32.036Z,100412.91
2023-09-12T12:59:03.720Z,100413.22
2023-09-12T13:01:30.901Z,100412.22
2023-09-12T13:03:57.920Z,100409.69
2023-09-12T13:06:26.627Z,100393.72
2023-09-12T13:08:54.702Z,100404.94
2023-09-12T13:11:21.667Z,100400.94
2023-09-12T13:13:52.118Z,100402.38
2023-09-12T13:16:19.294Z,100402.19
2023-09-12T13:18:46.278Z,100404.78
2023-09-12T13:21:13.183Z,100413.56
2023-09-12T13:23:40.654Z,100420.31
2023-09-12T13:26:11.413Z,100426.59
2023-09-12T13:28:38.287Z,100430.31
2023-09-12T13:31:04.982Z,100419.53
2023-09-12T13:33:32.612Z,100413.66
2023-09-12T13:36:00.206Z,100409.25
2023-09-12T13:38:26.827Z,100410.06
2023-09-12T13:40:53.807Z,100412.19
2023-09-12T13:43:20.982Z,100398.59
2023-09-12T13:45:48.800Z,100402.63
2023-09-12T13:48:15.724Z,100391.22
2023-09-12T13:50:44.157Z,100394.78
2023-09-12T13:53:11.235Z,100403.06
2023-09-12T13:55:48.845Z,100394.50
2023-09-12T13:58:15.889Z,100396.06
2023-09-12T14:00:42.591Z,100383.53
2023-09-12T14:03:09.591Z,100371.63
2023-09-12T14:05:36.982Z,100372.47
2023-09-12T14:08:04.567Z,100378.97
2023-09-12T14:10:37.060Z,100381.09
2023-09-12T14:13:18.465Z,100390.19
2023-09-12T14:15:51.566Z,100392.91
2023-09-12T14:18:22.363Z,100393.94
2023-09-12T14:20:51.057Z,100392.16
2023-09-12T14:23:18.017Z,100396.16
2023-09-12T14:25:46.381Z,100394.13
2023-09-12T14:28:15.126Z,100395.63
2023-09-12T14:30:45.996Z,100391.81
2023-09-12T14:33:15.072Z,100391.06
2023-09-12T14:35:44.829Z,100400.03
2023-09-12T14:38:11.926Z,100396.53
2023-09-12T14:40:39.287Z,100391.97
2023-09-12T14:43:05.991Z,100389.69
2023-09-12T14:45:34.977Z,100394.91
2023-09-12T14:48:01.700Z,100397.03
2023-09-12T14:50:39.218Z,100391.47
2023-09-12T14:53:09.744Z,100397.22
2023-09-12T14:55:36.363Z,100394.34
2023-09-12T14:58:03.164Z,100388.19
2023-09-12T15:00:31.397Z,100387.91
2023-09-12T15:02:58.272Z,100388.09
2023-09-12T15:05:25.996Z,100388.13
2023-09-12T15:07:52.817Z,100384.38
2023-09-12T15:10:20.499Z,100379.03
2023-09-12T15:12:47.263Z,100380.50
2023-09-12T15:15:13.836Z,100380.78
2023-09-12T15:17:41.794Z,100374.91
2023-09-12T15:23:10.941Z,100375.34
2023-09-12T15:25:38.864Z,100376.59
2023-09-12T15:28:06.040Z,100369.56
2023-09-12T15:30:33.779Z,100365.16
2023-09-12T15:33:00.595Z,100370.88
2023-09-12T15:35:27.161Z,100372.84
2023-09-12T15:37:54.154Z,100369.78
2023-09-12T15:40:20.784Z,100371.97
2023-09-12T15:42:48.230Z,100374.84
2023-09-12T15:45:17.025Z,100376.47
2023-09-12T15:47:45.184Z,100383.81
2023-09-12T15:50:11.979Z,100385.09
2023-09-12T15:52:39.436Z,100393.91
2023-09-12T15:55:13.044Z,100389.69
2023-09-12T15:57:39.977Z,100389.53
2023-09-12T16:00:11.319Z,100387.38
2023-09-12T16:02:42.077Z,100378.72
2023-09-12T16:05:10.010Z,100372.47
2023-09-12T16:07:37.411Z,100385.81
2023-09-12T16:10:04.360Z,100389.75
2023-09-12T16:12:31.461Z,100389.28
2023-09-12T16:14:58.114Z,100383.22
2023-09-12T16:17:25.257Z,100380.13
2023-09-12T16:19:52.912Z,100373.09
2023-09-12T16:22:19.687Z,100369.88
2023-09-12T16:24:46.719Z,100371.03
2023-09-12T16:27:13.829Z,100371.81
2023-09-12T16:29:40.551Z,100366.97
2023-09-12T16:32:07.155Z,100363.06
2023-09-12T16:34:33.862Z,100375.31
2023-09-12T16:37:00.619Z,100361.03
2023-09-12T16:39:27.646Z,100365.81
2023-09-12T16:41:54.497Z,100361.81
2023-09-12T16:44:23.964Z,100372.00
2023-09-12T16:46:51.553Z,100362.94
2023-09-12T16:49:18.419Z,100366.69
2023-09-12T16:51:45.890Z,100364.72
2023-09-12T16:54:12.509Z,100353.63
2023-09-12T16:56:39.351Z,100356.59
2023-09-12T16:59:06.004Z,100361.72
2023-09-12T17:01:33.073Z,100362.47
2023-09-12T17:04:02.953Z,100362.16
2023-09-12T17:06:33.281Z,100355.47
2023-09-12T17:09:02.291Z,100374.59
2023-09-12T17:11:32.374Z,100362.31
2023-09-12T17:13:59.238Z,100362.81
2023-09-12T17:16:26.214Z,100365.75
2023-09-12T17:18:53.432Z,100370.84
2023-09-12T17:21:20.070Z,100373.38
2023-09-12T17:23:46.648Z,100366.78
2023-09-12T17:26:13.331Z,100362.84
2023-09-12T17:28:40.403Z,100358.78
2023-09-12T17:31:07.813Z,100360.56
2023-09-12T17:33:35.245Z,100357.16
2023-09-12T17:36:04.070Z,100362.34
2023-09-12T17:38:30.630Z,100366.19
2023-09-12T17:40:57.728Z,100369.91
2023-09-12T17:43:25.456Z,100371.16
2023-09-12T17:46:08.044Z,100370.81
2023-09-12T17:48:37.314Z,100371.94
2023-09-12T17:51:04.532Z,100384.28
2023-09-12T17:53:31.264Z,100390.75
2023-09-12T17:55:58.224Z,100396.72
2023-09-12T17:58:24.796Z,100401.50
2023-09-12T18:00:59.427Z,100392.75
2023-09-12T18:03:30.905Z,100397.63
2023-09-12T18:06:00.714Z,100395.38
2023-09-12T18:08:27.617Z,100392.28
2023-09-12T18:10:54.498Z,100399.66
2023-09-12T18:13:21.104Z,100409.09
2023-09-12T18:15:47.889Z,100408.59
2023-09-12T18:18:14.566Z,100403.25
2023-09-12T18:20:41.874Z,100392.91
2023-09-12T18:23:08.552Z,100392.31
2023-09-12T18:25:35.464Z,100408.06
2023-09-12T18:28:02.988Z,100399.59
2023-09-12T18:30:30.088Z,100395.94
2023-09-12T18:32:58.232Z,100402.38
2023-09-12T18:35:25.576Z,100404.94
2023-09-12T18:37:53.798Z,100401.09
2023-09-12T18:40:21.568Z,100408.16
2023-09-12T18:42:48.559Z,100405.31
2023-09-12T18:45:15.990Z,100398.31
2023-09-12T18:47:43.726Z,100398.78
2023-09-12T18:50:10.698Z,100389.03
2023-09-12T18:52:51.922Z,100396.41
2023-09-12T18:55:32.962Z,100394.16
2023-09-12T18:58:01.361Z,100389.88
2023-09-12T19:00:28.316Z,100391.91
2023-09-12T19:02:55.709Z,100391.06
2023-09-12T19:05:23.462Z,100385.72
2023-09-12T19:07:50.381Z,100390.00
2023-09-12T19:10:19.719Z,100389.75
2023-09-12T19:12:47.301Z,100394.81
2023-09-12T19:15:15.415Z,100388.28
2023-09-12T19:17:42.708Z,100382.09
2023-09-12T19:20:12.704Z,100380.47
2023-09-12T19:22:41.121Z,100370.84
2023-09-12T19:25:08.815Z,100379.94
2023-09-12T19:27:38.000Z,100380.03
2023-09-12T19:30:07.940Z,100378.13
2023-09-12T19:32:35.413Z,100383.72
2023-09-12T19:35:03.180Z,100375.66
2023-09-12T19:37:29.926Z,100383.31
2023-09-12T19:39:57.495Z,100379.81
2023-09-12T19:42:24.236Z,100377.69
2023-09-12T19:44:53.554Z,100381.00
2023-09-12T19:47:21.490Z,100376.41
2023-09-12T19:49:49.348Z,100374.91
2023-09-12T19:52:16.085Z,100366.31
2023-09-12T19:54:43.317Z,100353.31
2023-09-12T19:57:10.509Z,100356.94
2023-09-12T19:59:37.683Z,100355.28
2023-09-12T20:02:04.758Z,100348.22
2023-09-12T20:04:35.236Z,100360.09
2023-09-12T20:07:03.999Z,100366.31
2023-09-12T20:09:31.153Z,100360.56
2023-09-12T20:11:58.728Z,100361.38
2023-09-12T20:14:25.469Z,100368.50
2023-09-12T20:16:54.144Z,100365.19
2023-09-12T20:19:21.584Z,100376.53
2023-09-12T20:21:48.203Z,100376.13
2023-09-12T20:24:14.892Z,100379.47
2023-09-12T20:26:41.559Z,100375.53
2023-09-12T20:29:10.882Z,100376.97
2023-09-12T20:31:38.985Z,100380.66
2023-09-12T20:34:05.643Z,100366.91
2023-09-12T20:36:34.828Z,100370.06
2023-09-12T20:39:28.376Z,100374.88
2023-09-12T20:41:57.459Z,100368.72
2023-09-12T20:44:24.817Z,100374.63
2023-09-12T20:46:53.041Z,100365.94
2023-09-12T20:49:19.988Z,100370.47
2023-09-12T20:51:50.807Z,100368.44
2023-09-12T20:54:20.017Z,100373.06
2023-09-12T20:56:50.981Z,100370.34
2023-09-12T20:59:18.044Z,100373.06
2023-09-12T21:01:45.307Z,100373.72
2023-09-12T21:04:13.171Z,100368.72
2023-09-12T21:06:40.517Z,100375.00
2023-09-12T21:09:07.289Z,100384.81
2023-09-12T21:11:33.944Z,100391.53
2023-09-12T21:14:00.916Z,100381.94
2023-09-12T21:16:28.510Z,100379.81
2023-09-12T21:18:55.472Z,100379.44
2023-09-12T21:21:23.255Z,100382.53
2023-09-12T21:23:49.917Z,100377.41
2023-09-12T21:26:20.302Z,100369.41
2023-09-12T21:28:46.993Z,100366.97
2023-09-12T21:31:14.815Z,100364.91
2023-09-12T21:33:45.797Z,100354.66
2023-09-12T21:36:13.409Z,100352.88
2023-09-12T21:38:40.141Z,100356.13
2023-09-12T21:41:06.765Z,100357.25
2023-09-12T21:43:34.199Z,100356.72
2023-09-12T21:46:00.886Z,100354.38
2023-09-12T21:48:27.567Z,100351.28
2023-09-12T21:50:54.213Z,100345.38
2023-09-12T21:53:20.919Z,100337.06
2023-09-12T21:55:49.373Z,100333.50
2023-09-12T21:58:16.888Z,100330.22
2023-09-12T22:00:44.254Z,100329.19
2023-09-12T22:03:11.762Z,100324.94
2023-09-12T22:05:39.418Z,100328.16
2023-09-12T22:08:07.558Z,100317.63
2023-09-12T22:10:39.295Z,100320.75
2023-09-12T22:13:06.663Z,100313.28
2023-09-12T22:15:33.514Z,100311.84
2023-09-12T22:18:00.429Z,100305.44
2023-09-12T22:20:27.078Z,100301.88
2023-09-12T22:22:54.393Z,100302.75
2023-09-12T22:25:21.755Z,100309.25
2023-09-12T22:27:48.401Z,100313.63
2023-09-12T22:30:15.031Z,100308.81
2023-09-12T22:32:42.037Z,100310.25
2023-09-12T22:35:09.578Z,100305.44
2023-09-12T22:37:37.165Z,100304.75
2023-09-12T22:40:06.354Z,100299.69
2023-09-12T22:42:33.743Z,100304.25
2023-09-12T22:45:00.323Z,100297.91
2023-09-12T22:47:27.696Z,100315.50
2023-09-12T22:49:57.607Z,100321.78
2023-09-12T22:52:24.554Z,100329.41
2023-09-12T22:54:51.258Z,100331.69
2023-09-12T22:57:18.182Z,100332.09
2023-09-12T22:59:45.026Z,100326.19
2023-09-12T23:02:11.915Z,100335.03
2023-09-12T23:04:38.701Z,100326.19
2023-09-12T23:07:05.488Z,100325.31
2023-09-12T23:09:32.821Z,100327.81
2023-09-12T23:11:59.607Z,100325.56
2023-09-12T23:14:27.524Z,100317.88
2023-09-12T23:16:54.145Z,100315.50
2023-09-12T23:19:20.801Z,100315.00
2023-09-12T23:21:47.647Z,100312.13
2023-09-12T23:24:14.223Z,100314.31
2023-09-12T23:26:41.792Z,100310.78
2023-09-12T23:29:08.649Z,100305.03
2023-09-12T23:31:35.291Z,100312.28
2023-09-12T23:34:02.115Z,100306.00
2023-09-12T23:36:28.939Z,100305.03
2023-09-12T23:38:55.480Z,100294.25
2023-09-12T23:41:23.566Z,100292.63
2023-09-12T23:43:50.155Z,100289.53
2023-09-12T23:46:16.829Z,100292.28
2023-09-12T23:48:43.612Z,100275.78
2023-09-12T23:51:10.687Z,100276.41
2023-09-12T23:53:37.539Z,100273.88
2023-09-12T23:56:04.265Z,100263.38
2023-09-12T23:58:30.883Z,100263.41
